sensor_id;sensor_type;location;lat;lon;timestamp;pressure;altitude;pressure_sealevel;temperature;humidity
4858;BME280;58975;51.978;8.472;2024-01-15T00:03:25;98844.16;;;-0.25;100.00
4858;BME280;58975;51.978;8.472;2024-01-15T00:08:22;98823.22;;;-0.25;100.00
4858;BME280;58975;51.978;8.472;2024-01-15T00:13:18;98820.31;;;-0.20;100.00
4858;BME280;58975;51.978;8.472;2024-01-15T00:18:15;98815.81;;;-0.18;100.00
4858;BME280;58975;51.978;8.472;2024-01-15T00:23:11;98814.72;;;-0.14;100.00
4858;BME280;58975;51.978;8.472;2024-01-15T00:28:08;98817.03;;;-0.10;100.00
4858;BME280;58975;51.978;8.472;2024-01-15T00:33:04;98810.88;;;-0.09;100.00
4858;BME280;58975;51.978;8.472;2024-01-15T00:38:01;98818.63;;;-0.07;100.00
4858;BME280;58975;51.978;8.472;2024-01-15T00:42:57;98813.28;;;-0.06;100.00
4858;BME280;58975;51.978;8.472;2024-01-15T00:47:54;98812.81;;;0.02;100.00
4858;BME280;58975;51.978;8.472;2024-01-15T00:52:52;98804.03;;;0.03;100.00
4858;BME280;58975;51.978;8.472;2024-01-15T00:57:49;98804.03;;;0.03;100.00
4858;BME280;58975;51.978;8.472;2024-01-15T01:02:45;98810.13;;;0.04;100.00
4858;BME280;58975;51.978;8.472;2024-01-15T01:07:42;98799.72;;;0.02;100.00
4858;BME280;58975;51.978;8.472;2024-01-15T01:12:38;98787.56;;;0.01;100.00
4858;BME280;58975;51.978;8.472;2024-01-15T01:17:35;98779.00;;;-0.01;100.00
4858;BME280;58975;51.978;8.472;2024-01-15T01:22:32;98779.00;;;-0.01;100.00
4858;BME280;58975;51.978;8.472;2024-01-15T01:27:28;98776.38;;;-0.01;100.00
4858;BME280;58975;51.978;8.472;2024-01-15T01:32:25;98773.84;;;-0.03;100.00
4858;BME280;58975;51.978;8.472;2024-01-15T01:37:21;98772.28;;;-0.05;100.00
4858;BME280;58975;51.978;8.472;2024-01-15T01:42:18;98767.03;;;-0.05;100.00
4858;BME280;58975;51.978;8.472;2024-01-15T01:47:15;98771.50;;;-0.07;100.00
4858;BME280;58975;51.978;8.472;2024-01-15T01:52:13;98742.00;;;-0.09;100.00
4858;BME280;58975;51.978;8.472;2024-01-15T01:57:10;98738.25;;;-0.05;100.00
4858;BME280;58975;51.978;8.472;2024-01-15T02:02:08;98734.88;;;-0.07;100.00
4858;BME280;58975;51.978;8.472;2024-01-15T02:07:04;98714.91;;;-0.08;100.00
4858;BME280;58975;51.978;8.472;2024-01-15T02:12:01;98724.31;;;-0.06;100.00
4858;BME280;58975;51.978;8.472;2024-01-15T02:16:58;98713.94;;;-0.07;100.00
4858;BME280;58975;51.978;8.472;2024-01-15T02:21:55;98720.88;;;-0.06;100.00
4858;BME280;58975;51.978;8.472;2024-01-15T02:26:51;98727.78;;;-0.05;100.00
4858;BME280;58975;51.978;8.472;2024-01-15T02:31:48;98720.16;;;-0.08;100.00
4858;BME280;58975;51.978;8.472;2024-01-15T02:36:45;98709.69;;;-0.08;100.00
4858;BME280;58975;51.978;8.472;2024-01-15T02:41:42;98718.25;;;-0.06;100.00
4858;BME280;58975;51.978;8.472;2024-01-15T02:46:38;98698.25;;;-0.07;100.00
4858;BME280;58975;51.978;8.472;2024-01-15T02:51:35;98689.47;;;-0.06;100.00
4858;BME280;58975;51.978;8.472;2024-01-15T02:56:31;98704.88;;;-0.02;100.00
4858;BME280;58975;51.978;8.472;2024-01-15T03:01:28;98699.56;;;0.00;100.00
4858;BME280;58975;51.978;8.472;2024-01-15T03:06:24;98702.34;;;-0.03;100.00
4858;BME280;58975;51.978;8.472;2024-01-15T03:11:21;98699.00;;;-0.05;100.00
4858;BME280;58975;51.978;8.472;2024-01-15T03:16:18;98681.53;;;-0.05;100.00
4858;BME280;58975;51.978;8.472;2024-01-15T03:21:16;98686.94;;;-0.08;100.00
4858;BME280;58975;51.978;8.472;2024-01-15T03:26:12;98690.31;;;-0.06;100.00
4858;BME280;58975;51.978;8.472;2024-01-15T03:31:09;98690.22;;;-0.04;100.00
4858;BME280;58975;51.978;8.472;2024-01-15T03:36:06;98680.47;;;-0.02;100.00
4858;BME280;58975;51.978;8.472;2024-01-15T03:41:03;98675.81;;;0.03;100.00
4858;BME280;58975;51.978;8.472;2024-01-15T03:45:59;98662.72;;;0.03;100.00
4858;BME280;58975;51.978;8.472;2024-01-15T03:50:56;98663.34;;;0.07;100.00
4858;BME280;58975;51.978;8.472;2024-01-15T03:55:52;98650.34;;;0.05;100.00
4858;BME280;58975;51.978;8.472;2024-01-15T04:00:48;98671.28;;;0.05;100.00
4858;BME280;58975;51.978;8.472;2024-01-15T04:05:45;98669.59;;;0.04;100.00
4858;BME280;58975;51.978;8.472;2024-01-15T04:10:42;98671.84;;;0.10;100.00
4858;BME280;58975;51.978;8.472;2024-01-15T04:15:38;98664.91;;;0.09;100.00
4858;BME280;58975;51.978;8.472;2024-01-15T04:20:34;98667.44;;;0.11;100.00
4858;BME280;58975;51.978;8.472;2024-01-15T04:25:31;98644.72;;;0.11;100.00
4858;BME280;58975;51.978;8.472;2024-01-15T04:30:28;98653.53;;;0.10;100.00
4858;BME280;58975;51.978;8.472;2024-01-15T04:35:24;98640.63;;;0.07;100.00
4858;BME280;58975;51.978;8.472;2024-01-15T04:40:21;98642.28;;;0.08;100.00
4858;BME280;58975;51.978;8.472;2024-01-15T04:45:17;98632.97;;;0.04;100.00
4858;BME280;58975;51.978;8.472;2024-01-15T04:50:15;98633.19;;;0.01;100.00
4858;BME280;58975;51.978;8.472;2024-01-15T04:55:11;98631.91;;;-0.06;100.00
4858;BME280;58975;51.978;8.472;2024-01-15T05:00:08;98619.25;;;-0.12;100.00
4858;BME280;58975;51.978;8.472;2024-01-15T05:05:05;98618.25;;;-0.24;100.00
4858;BME280;58975;51.978;8.472;2024-01-15T05:10:02;98628.06;;;-0.27;100.00
4858;BME280;58975;51.978;8.472;2024-01-15T05:14:59;98621.34;;;-0.31;100.00
4858;BME280;58975;51.978;8.472;2024-01-15T05:19:55;98624.91;;;-0.32;100.00
4858;BME280;58975;51.978;8.472;2024-01-15T05:24:52;98629.94;;;-0.29;100.00
4858;BME280;58975;51.978;8.472;2024-01-15T05:29:49;98624.63;;;-0.28;100.00
4858;BME280;58975;51.978;8.472;2024-01-15T05:34:45;98626.19;;;-0.25;100.00
4858;BME280;58975;51.978;8.472;2024-01-15T05:39:42;98626.19;;;-0.25;100.00
4858;BME280;58975;51.978;8.472;2024-01-15T05:44:38;98633.09;;;-0.24;100.00
4858;BME280;58975;51.978;8.472;2024-01-15T05:49:35;98630.59;;;-0.26;100.00
4858;BME280;58975;51.978;8.472;2024-01-15T05:54:32;98622.75;;;-0.26;100.00
4858;BME280;58975;51.978;8.472;2024-01-15T05:59:29;98627.25;;;-0.28;100.00
4858;BME280;58975;51.978;8.472;2024-01-15T06:04:28;98643.75;;;-0.27;100.00
4858;BME280;58975;51.978;8.472;2024-01-15T06:09:25;98638.50;;;-0.27;100.00
4858;BME280;58975;51.978;8.472;2024-01-15T06:14:21;98629.94;;;-0.29;100.00
4858;BME280;58975;51.978;8.472;2024-01-15T06:19:18;98631.63;;;-0.28;100.00
4858;BME280;58975;51.978;8.472;2024-01-15T06:24:14;98648.06;;;-0.26;100.00
4858;BME280;58975;51.978;8.472;2024-01-15T06:29:11;98635.19;;;-0.29;100.00
4858;BME280;58975;51.978;8.472;2024-01-15T06:34:08;98639.28;;;-0.25;100.00
4858;BME280;58975;51.978;8.472;2024-01-15T06:39:05;98652.25;;;-0.24;100.00
4858;BME280;58975;51.978;8.472;2024-01-15T06:44:02;98641.69;;;-0.22;100.00
4858;BME280;58975;51.978;8.472;2024-01-15T06:48:58;98657.19;;;-0.19;100.00
4858;BME280;58975;51.978;8.472;2024-01-15T06:53:55;98640.00;;;-0.23;100.00
4858;BME280;58975;51.978;8.472;2024-01-15T06:58:51;98643.56;;;-0.24;100.00
4858;BME280;58975;51.978;8.472;2024-01-15T07:03:48;98653.84;;;-0.21;100.00
4858;BME280;58975;51.978;8.472;2024-01-15T07:08:45;98664.09;;;-0.18;100.00
4858;BME280;58975;51.978;8.472;2024-01-15T07:13:42;98661.28;;;-0.15;100.00
4858;BME280;58975;51.978;8.472;2024-01-15T07:18:38;98661.38;;;-0.17;100.00
4858;BME280;58975;51.978;8.472;2024-01-15T07:23:35;98671.22;;;-0.20;100.00
4858;BME280;58975;51.978;8.472;2024-01-15T07:28:31;98668.41;;;-0.17;100.00
4858;BME280;58975;51.978;8.472;2024-01-15T07:33:28;98652.69;;;-0.17;100.00
4858;BME280;58975;51.978;8.472;2024-01-15T07:38:24;98668.41;;;-0.17;100.00
4858;BME280;58975;51.978;8.472;2024-01-15T07:43:21;98656.25;;;-0.18;100.00
4858;BME280;58975;51.978;8.472;2024-01-15T07:48:19;98669.44;;;-0.20;100.00
4858;BME280;58975;51.978;8.472;2024-01-15T07:53:15;98663.47;;;-0.22;100.00
4858;BME280;58975;51.978;8.472;2024-01-15T07:58:12;98664.28;;;-0.21;100.00
4858;BME280;58975;51.978;8.472;2024-01-15T08:03:12;98671.94;;;-0.18;100.00
4858;BME280;58975;51.978;8.472;2024-01-15T08:08:09;98677.59;;;-0.24;100.00
4858;BME280;58975;51.978;8.472;2024-01-15T08:13:06;98668.88;;;-0.25;100.00
4858;BME280;58975;51.978;8.472;2024-01-15T08:18:04;98679.72;;;-0.31;100.00
4858;BME280;58975;51.978;8.472;2024-01-15T08:23:01;98677.03;;;-0.29;100.00
4858;BME280;58975;51.978;8.472;2024-01-15T08:27:58;98681.50;;;-0.31;100.00
4858;BME280;58975;51.978;8.472;2024-01-15T08:32:55;98684.13;;;-0.31;100.00
4858;BME280;58975;51.978;8.472;2024-01-15T08:37:55;98673.84;;;-0.34;100.00
4858;BME280;58975;51.978;8.472;2024-01-15T08:42:51;98680.13;;;-0.37;100.00
4858;BME280;58975;51.978;8.472;2024-01-15T08:47:48;98677.81;;;-0.41;100.00
4858;BME280;58975;51.978;8.472;2024-01-15T08:52:44;98678.00;;;-0.44;100.00
4858;BME280;58975;51.978;8.472;2024-01-15T08:57:42;98689.47;;;-0.47;100.00
4858;BME280;58975;51.978;8.472;2024-01-15T09:02:39;98676.41;;;-0.47;100.00
4858;BME280;58975;51.978;8.472;2024-01-15T09:07:36;98686.56;;;-0.42;100.00
4858;BME280;58975;51.978;8.472;2024-01-15T09:12:32;98693.41;;;-0.40;100.00
4858;BME280;58975;51.978;8.472;2024-01-15T09:17:29;98689.75;;;-0.37;100.00
4858;BME280;58975;51.978;8.472;2024-01-15T09:22:25;98697.94;;;-0.29;100.00
4858;BME280;58975;51.978;8.472;2024-01-15T09:27:22;98690.09;;;-0.29;100.00
4858;BME280;58975;51.978;8.472;2024-01-15T09:32:18;98694.94;;;-0.23;100.00
4858;BME280;58975;51.978;8.472;2024-01-15T09:37:15;98688.13;;;-0.26;100.00
4858;BME280;58975;51.978;8.472;2024-01-15T09:42:31;98678.50;;;-0.25;100.00
4858;BME280;58975;51.978;8.472;2024-01-15T09:47:28;98681.84;;;-0.23;100.00
4858;BME280;58975;51.978;8.472;2024-01-15T09:52:25;98678.75;;;-0.16;100.00
4858;BME280;58975;51.978;8.472;2024-01-15T09:57:21;98682.97;;;-0.13;100.00
4858;BME280;58975;51.978;8.472;2024-01-15T10:02:18;98683.09;;;-0.02;100.00
4858;BME280;58975;51.978;8.472;2024-01-15T10:07:16;98671.91;;;-0.04;100.00
4858;BME280;58975;51.978;8.472;2024-01-15T10:12:15;98672.53;;;-0.01;100.00
4858;BME280;58975;51.978;8.472;2024-01-15T10:17:15;98663.72;;;0.00;100.00
4858;BME280;58975;51.978;8.472;2024-01-15T10:22:13;98664.56;;;0.01;100.00
4858;BME280;58975;51.978;8.472;2024-01-15T10:27:10;98659.47;;;-0.01;100.00
4858;BME280;58975;51.978;8.472;2024-01-15T10:32:07;98647.22;;;0.00;100.00
4858;BME280;58975;51.978;8.472;2024-01-15T10:37:07;98643.25;;;0.07;100.00
4858;BME280;58975;51.978;8.472;2024-01-15T10:42:04;98641.91;;;0.14;100.00
4858;BME280;58975;51.978;8.472;2024-01-15T10:47:00;98632.38;;;0.13;100.00
4858;BME280;58975;51.978;8.472;2024-01-15T10:51:57;98635.91;;;0.12;100.00
4858;BME280;58975;51.978;8.472;2024-01-15T10:56:55;98626.22;;;0.27;100.00
4858;BME280;58975;51.978;8.472;2024-01-15T11:01:52;98625.09;;;0.31;100.00
4858;BME280;58975;51.978;8.472;2024-01-15T11:06:53;98620.88;;;0.28;100.00
4858;BME280;58975;51.978;8.472;2024-01-15T11:12:12;98610.22;;;0.31;100.00
4858;BME280;58975;51.978;8.472;2024-01-15T11:17:09;98588.44;;;0.31;100.00
4858;BME280;58975;51.978;8.472;2024-01-15T11:22:10;98591.56;;;0.36;100.00
4858;BME280;58975;51.978;8.472;2024-01-15T11:27:08;98587.38;;;0.33;100.00
4858;BME280;58975;51.978;8.472;2024-01-15T11:32:09;98583.41;;;0.40;100.00
4858;BME280;58975;51.978;8.472;2024-01-15T11:37:06;98584.25;;;0.41;100.00
4858;BME280;58975;51.978;8.472;2024-01-15T11:42:03;98563.50;;;0.38;100.00
4858;BME280;58975;51.978;8.472;2024-01-15T11:47:11;98573.16;;;0.50;100.00
4858;BME280;58975;51.978;8.472;2024-01-15T11:52:18;98571.16;;;0.54;100.00
4858;BME280;58975;51.978;8.472;2024-01-15T11:57:34;98567.06;;;0.50;100.00
4858;BME280;58975;51.978;8.472;2024-01-15T12:02:34;98580.25;;;0.48;100.00
4858;BME280;58975;51.978;8.472;2024-01-15T12:07:30;98572.53;;;0.46;100.00
4858;BME280;58975;51.978;8.472;2024-01-15T12:12:43;98573.53;;;0.44;100.00
4858;BME280;58975;51.978;8.472;2024-01-15T12:17:42;98571.56;;;0.47;100.00
4858;BME280;58975;51.978;8.472;2024-01-15T12:22:38;98570.63;;;0.48;100.00
4858;BME280;58975;51.978;8.472;2024-01-15T12:27:56;98558.28;;;0.51;100.00
4858;BME280;58975;51.978;8.472;2024-01-15T12:32:52;98564.53;;;0.61;100.00
4858;BME280;58975;51.978;8.472;2024-01-15T12:37:49;98564.22;;;0.78;100.00
4858;BME280;58975;51.978;8.472;2024-01-15T12:42:45;98569.16;;;0.70;100.00
4858;BME280;58975;51.978;8.472;2024-01-15T12:47:42;98566.00;;;0.65;100.00
4858;BME280;58975;51.978;8.472;2024-01-15T12:52:42;98552.91;;;0.52;100.00
4858;BME280;58975;51.978;8.472;2024-01-15T12:57:39;98561.59;;;0.53;100.00
4858;BME280;58975;51.978;8.472;2024-01-15T13:02:35;98557.00;;;0.69;100.00
4858;BME280;58975;51.978;8.472;2024-01-15T13:07:32;98562.84;;;0.72;100.00
4858;BME280;58975;51.978;8.472;2024-01-15T13:12:28;98555.31;;;0.68;100.00
4858;BME280;58975;51.978;8.472;2024-01-15T13:17:25;98560.66;;;0.28;100.00
4858;BME280;58975;51.978;8.472;2024-01-15T13:22:21;98561.81;;;0.24;100.00
4858;BME280;58975;51.978;8.472;2024-01-15T13:27:20;98566.03;;;0.27;100.00
4858;BME280;58975;51.978;8.472;2024-01-15T13:32:24;98562.13;;;0.32;100.00
4858;BME280;58975;51.978;8.472;2024-01-15T13:37:24;98562.66;;;0.37;100.00
4858;BME280;58975;51.978;8.472;2024-01-15T13:42:24;98566.66;;;0.43;100.00
4858;BME280;58975;51.978;8.472;2024-01-15T13:47:20;98572.53;;;0.46;100.00
4858;BME280;58975;51.978;8.472;2024-01-15T13:52:17;98576.06;;;0.45;100.00
4858;BME280;58975;51.978;8.472;2024-01-15T13:57:14;98573.75;;;0.41;100.00
4858;BME280;58975;51.978;8.472;2024-01-15T14:02:11;98590.63;;;0.12;100.00
4858;BME280;58975;51.978;8.472;2024-01-15T14:07:09;98590.78;;;-0.04;100.00
4858;BME280;58975;51.978;8.472;2024-01-15T14:12:05;98592.56;;;-0.05;100.00
4858;BME280;58975;51.978;8.472;2024-01-15T14:17:03;98592.13;;;-0.11;100.00
4858;BME280;58975;51.978;8.472;2024-01-15T14:22:00;98598.31;;;-0.12;100.00
4858;BME280;58975;51.978;8.472;2024-01-15T14:26:56;98603.88;;;-0.04;100.00
4858;BME280;58975;51.978;8.472;2024-01-15T14:31:53;98605.16;;;0.03;100.00
4858;BME280;58975;51.978;8.472;2024-01-15T14:36:50;98620.63;;;0.06;100.00
4858;BME280;58975;51.978;8.472;2024-01-15T14:41:49;98627.94;;;0.01;100.00
4858;BME280;58975;51.978;8.472;2024-01-15T14:46:45;98622.03;;;-0.15;100.00
4858;BME280;58975;51.978;8.472;2024-01-15T14:51:43;98645.44;;;-0.26;100.00
4858;BME280;58975;51.978;8.472;2024-01-15T14:56:41;98640.63;;;-0.32;100.00
4858;BME280;58975;51.978;8.472;2024-01-15T15:01:39;98670.31;;;-0.33;100.00
4858;BME280;58975;51.978;8.472;2024-01-15T15:06:36;98688.53;;;-0.32;100.00
4858;BME280;58975;51.978;8.472;2024-01-15T15:11:33;98709.34;;;-0.30;100.00
4858;BME280;58975;51.978;8.472;2024-01-15T15:16:30;98724.75;;;-0.26;100.00
4858;BME280;58975;51.978;8.472;2024-01-15T15:21:26;98721.94;;;-0.23;100.00
4858;BME280;58975;51.978;8.472;2024-01-15T15:26:25;98730.44;;;-0.19;100.00
4858;BME280;58975;51.978;8.472;2024-01-15T15:31:21;98744.16;;;-0.16;100.00
4858;BME280;58975;51.978;8.472;2024-01-15T15:36:17;98744.91;;;-0.14;100.00
4858;BME280;58975;51.978;8.472;2024-01-15T15:41:15;98752.75;;;-0.14;100.00
4858;BME280;58975;51.978;8.472;2024-01-15T15:46:12;98761.25;;;-0.10;100.00
4858;BME280;58975;51.978;8.472;2024-01-15T15:51:08;98776.22;;;-0.12;100.00
4858;BME280;58975;51.978;8.472;2024-01-15T15:56:05;98791.16;;;-0.14;100.00
4858;BME280;58975;51.978;8.472;2024-01-15T16:01:02;98800.78;;;-0.15;100.00
4858;BME280;58975;51.978;8.472;2024-01-15T16:05:59;98810.13;;;-0.11;100.00
4858;BME280;58975;51.978;8.472;2024-01-15T16:10:57;98820.50;;;-0.09;100.00
4858;BME280;58975;51.978;8.472;2024-01-15T16:15:54;98811.41;;;-0.04;100.00
4858;BME280;58975;51.978;8.472;2024-01-15T16:21:10;98807.78;;;-0.01;100.00
4858;BME280;58975;51.978;8.472;2024-01-15T16:26:26;98832.47;;;-0.05;100.00
4858;BME280;58975;51.978;8.472;2024-01-15T16:31:23;98831.69;;;-0.07;100.00
4858;BME280;58975;51.978;8.472;2024-01-15T16:36:20;98839.94;;;-0.13;100.00
4858;BME280;58975;51.978;8.472;2024-01-15T16:41:17;98851.13;;;-0.11;100.00
4858;BME280;58975;51.978;8.472;2024-01-15T16:46:14;98866.84;;;-0.11;100.00
4858;BME280;58975;51.978;8.472;2024-01-15T16:51:11;98861.53;;;-0.10;100.00
4858;BME280;58975;51.978;8.472;2024-01-15T16:56:08;98860.88;;;-0.13;100.00
4858;BME280;58975;51.978;8.472;2024-01-15T17:01:04;98876.56;;;-0.13;100.00
4858;BME280;58975;51.978;8.472;2024-01-15T17:06:04;98881.03;;;-0.15;100.00
4858;BME280;58975;51.978;8.472;2024-01-15T17:11:00;98870.13;;;-0.22;100.00
4858;BME280;58975;51.978;8.472;2024-01-15T17:15:58;98883.38;;;-0.25;100.00
4858;BME280;58975;51.978;8.472;2024-01-15T17:20:55;98888.91;;;-0.29;100.00
4858;BME280;58975;51.978;8.472;2024-01-15T17:25:51;98890.00;;;-0.33;100.00
4858;BME280;58975;51.978;8.472;2024-01-15T17:30:48;98905.91;;;-0.36;100.00
4858;BME280;58975;51.978;8.472;2024-01-15T17:35:52;98918.22;;;-0.38;100.00
4858;BME280;58975;51.978;8.472;2024-01-15T17:40:49;98926.81;;;-0.36;100.00
4858;BME280;58975;51.978;8.472;2024-01-15T17:45:46;98919.81;;;-0.36;100.00
4858;BME280;58975;51.978;8.472;2024-01-15T17:50:43;98925.91;;;-0.35;100.00
4858;BME280;58975;51.978;8.472;2024-01-15T17:55:39;98931.00;;;-0.34;100.00
4858;BME280;58975;51.978;8.472;2024-01-15T18:00:36;98920.66;;;-0.35;100.00
4858;BME280;58975;51.978;8.472;2024-01-15T18:05:33;98914.47;;;-0.34;100.00
4858;BME280;58975;51.978;8.472;2024-01-15T18:10:29;98934.41;;;-0.32;100.00
4858;BME280;58975;51.978;8.472;2024-01-15T18:15:26;98926.44;;;-0.30;100.00
4858;BME280;58975;51.978;8.472;2024-01-15T18:20:22;98917.88;;;-0.32;100.00
4858;BME280;58975;51.978;8.472;2024-01-15T18:25:19;98929.25;;;-0.33;100.00
4858;BME280;58975;51.978;8.472;2024-01-15T18:30:15;98931.13;;;-0.35;100.00
4858;BME280;58975;51.978;8.472;2024-01-15T18:35:12;98938.22;;;-0.37;100.00
4858;BME280;58975;51.978;8.472;2024-01-15T18:40:09;98945.22;;;-0.38;100.00
4858;BME280;58975;51.978;8.472;2024-01-15T18:45:06;98945.88;;;-0.34;100.00
4858;BME280;58975;51.978;8.472;2024-01-15T18:50:04;98958.41;;;-0.39;100.00
4858;BME280;58975;51.978;8.472;2024-01-15T18:55:01;98973.50;;;-0.44;100.00
4858;BME280;58975;51.978;8.472;2024-01-15T18:59:57;98963.31;;;-0.49;100.00
4858;BME280;58975;51.978;8.472;2024-01-15T19:04:53;98980.88;;;-0.51;100.00
4858;BME280;58975;51.978;8.472;2024-01-15T19:09:50;98989.53;;;-0.51;100.00
4858;BME280;58975;51.978;8.472;2024-01-15T19:14:46;98997.56;;;-0.54;100.00
4858;BME280;58975;51.978;8.472;2024-01-15T19:19:43;99007.94;;;-0.52;100.00
4858;BME280;58975;51.978;8.472;2024-01-15T19:24:45;99002.53;;;-0.49;100.00
4858;BME280;58975;51.978;8.472;2024-01-15T19:29:42;99015.41;;;-0.46;100.00
4858;BME280;58975;51.978;8.472;2024-01-15T19:34:40;99022.16;;;-0.42;100.00
4858;BME280;58975;51.978;8.472;2024-01-15T19:39:36;99012.03;;;-0.32;100.00
4858;BME280;58975;51.978;8.472;2024-01-15T19:44:33;99043.22;;;-0.29;100.00
4858;BME280;58975;51.978;8.472;2024-01-15T19:49:29;99040.44;;;-0.26;100.00
4858;BME280;58975;51.978;8.472;2024-01-15T19:54:25;99051.66;;;-0.24;100.00
4858;BME280;58975;51.978;8.472;2024-01-15T19:59:22;99057.56;;;-0.21;100.00
4858;BME280;58975;51.978;8.472;2024-01-15T20:04:19;99056.53;;;-0.18;100.00
4858;BME280;58975;51.978;8.472;2024-01-15T20:09:15;99054.09;;;-0.21;100.00
4858;BME280;58975;51.978;8.472;2024-01-15T20:14:12;99061.75;;;-0.18;100.00
4858;BME280;58975;51.978;8.472;2024-01-15T20:19:09;99086.16;;;-0.18;100.00
4858;BME280;58975;51.978;8.472;2024-01-15T20:24:05;99083.06;;;-0.24;100.00
4858;BME280;58975;51.978;8.472;2024-01-15T20:29:02;99082.69;;;-0.18;100.00
4858;BME280;58975;51.978;8.472;2024-01-15T20:33:59;99093.53;;;-0.24;100.00
4858;BME280;58975;51.978;8.472;2024-01-15T20:38:56;99082.88;;;-0.21;100.00
4858;BME280;58975;51.978;8.472;2024-01-15T20:43:53;99094.84;;;-0.17;100.00
4858;BME280;58975;51.978;8.472;2024-01-15T20:48:49;99093.63;;;-0.12;100.00
4858;BME280;58975;51.978;8.472;2024-01-15T20:53:46;99087.59;;;-0.12;100.00
4858;BME280;58975;51.978;8.472;2024-01-15T20:58:45;99099.06;;;-0.15;100.00
4858;BME280;58975;51.978;8.472;2024-01-15T21:03:41;99105.97;;;-0.14;100.00
4858;BME280;58975;51.978;8.472;2024-01-15T21:08:38;99110.38;;;-0.14;100.00
4858;BME280;58975;51.978;8.472;2024-01-15T21:13:37;99111.88;;;-0.10;100.00
4858;BME280;58975;51.978;8.472;2024-01-15T21:18:34;99122.53;;;-0.13;100.00
4858;BME280;58975;51.978;8.472;2024-01-15T21:23:31;99132.06;;;-0.12;100.00
4858;BME280;58975;51.978;8.472;2024-01-15T21:28:29;99137.31;;;-0.12;100.00
4858;BME280;58975;51.978;8.472;2024-01-15T21:33:27;99144.97;;;-0.09;100.00
4858;BME280;58975;51.978;8.472;2024-01-15T21:38:28;99144.13;;;-0.10;100.00
4858;BME280;58975;51.978;8.472;2024-01-15T21:43:24;99162.38;;;-0.24;100.00
4858;BME280;58975;51.978;8.472;2024-01-15T21:48:21;99177.13;;;-0.38;100.00
4858;BME280;58975;51.978;8.472;2024-01-15T21:53:18;99183.47;;;-0.42;100.00
4858;BME280;58975;51.978;8.472;2024-01-15T21:58:14;99200.69;;;-0.38;100.00
4858;BME280;58975;51.978;8.472;2024-01-15T22:03:11;99204.25;;;-0.39;100.00
4858;BME280;58975;51.978;8.472;2024-01-15T22:08:07;99202.19;;;-0.34;100.00
4858;BME280;58975;51.978;8.472;2024-01-15T22:13:04;99200.34;;;-0.32;100.00
4858;BME280;58975;51.978;8.472;2024-01-15T22:18:00;99206.44;;;-0.32;100.00
4858;BME280;58975;51.978;8.472;2024-01-15T22:22:59;99212.47;;;-0.31;100.00
4858;BME280;58975;51.978;8.472;2024-01-15T22:27:55;99217.72;;;-0.31;100.00
4858;BME280;58975;51.978;8.472;2024-01-15T22:32:52;99218.66;;;-0.32;100.00
4858;BME280;58975;51.978;8.472;2024-01-15T22:37:49;99224.81;;;-0.33;100.00
4858;BME280;58975;51.978;8.472;2024-01-15T22:42:45;99231.75;;;-0.32;100.00
4858;BME280;58975;51.978;8.472;2024-01-15T22:47:42;99240.44;;;-0.32;100.00
4858;BME280;58975;51.978;8.472;2024-01-15T22:52:39;99241.97;;;-0.28;100.00
4858;BME280;58975;51.978;8.472;2024-01-15T22:57:36;99241.13;;;-0.28;100.00
4858;BME280;58975;51.978;8.472;2024-01-15T23:02:33;99241.00;;;-0.27;100.00
4858;BME280;58975;51.978;8.472;2024-01-15T23:07:29;99242.63;;;-0.24;100.00
4858;BME280;58975;51.978;8.472;2024-01-15T23:12:26;99255.72;;;-0.24;100.00
4858;BME280;58975;51.978;8.472;2024-01-15T23:17:23;99254.94;;;-0.26;100.00
4858;BME280;58975;51.978;8.472;2024-01-15T23:22:19;99259.56;;;-0.31;100.00
4858;BME280;58975;51.978;8.472;2024-01-15T23:27:16;99257.91;;;-0.32;100.00
4858;BME280;58975;51.978;8.472;2024-01-15T23:32:13;99262.13;;;-0.30;100.00
4858;BME280;58975;51.978;8.472;2024-01-15T23:37:09;99269.03;;;-0.29;100.00
4858;BME280;58975;51.978;8.472;2024-01-15T23:42:06;99261.69;;;-0.38;100.00
4858;BME280;58975;51.978;8.472;2024-01-15T23:47:03;99285.91;;;-0.34;100.00
4858;BME280;58975;51.978;8.472;2024-01-15T23:51:59;99284.31;;;-0.37;100.00
4858;BME280;58975;51.978;8.472;2024-01-15T23:56:57;99298.25;;;-0.36;100.00
